Time;durP1;ratioP1;P1;durP2;ratioP2;P2;SDS_P1;SDS_P2;PMS_P1;PMS_P2;Temp;Humidity;BMP_temperature;BMP_pressure;BME280_temperature;BME280_humidity;BME280_pressure;Samples;Min_cycle;Max_cycle;Signal;HPM_P1;HPM_P2
2022/04/25 00:00:29;;;;;;;;;;;9.70;96.30;;;;;;5039506;28;38399;-59
2022/04/25 00:02:57;;;;;;;;;;;9.70;96.40;;;;;;5039850;28;36769;-58
2022/04/25 00:05:24;;;;;;;;;;;9.70;96.40;;;;;;5037734;28;38090;-59
2022/04/25 00:07:53;;;;;;;;;;;9.70;96.40;;;;;;5037929;28;36986;-59
2022/04/25 00:10:20;;;;;;;;;;;9.80;96.60;;;;;;5040895;28;38984;-59
2022/04/25 00:12:47;;;;;;;;;;;9.70;96.80;;;;;;5037883;28;37057;-59
2022/04/25 00:15:14;;;;;;;;;;;9.70;96.80;;;;;;5039698;28;40405;-59
2022/04/25 00:17:41;;;;;;;;;;;9.70;97.00;;;;;;5040003;28;38058;-59
2022/04/25 00:20:10;;;;;;;;;;;9.80;97.10;;;;;;5038223;28;36868;-59
2022/04/25 00:22:37;;;;;;;;;;;9.80;97.30;;;;;;5038317;28;35067;-59
2022/04/25 00:25:06;;;;;;;;;;;9.80;97.20;;;;;;5038165;28;38719;-59
2022/04/25 00:27:33;;;;;;;;;;;9.80;97.20;;;;;;5039182;28;38085;-59
2022/04/25 00:30:00;;;;;;;;;;;9.90;97.20;;;;;;5039891;28;38017;-59
2022/04/25 00:32:28;;;;;;;;;;;9.80;97.40;;;;;;5039200;28;37054;-59
2022/04/25 00:34:55;;;;;;;;;;;9.90;97.20;;;;;;5038734;28;37935;-59
2022/04/25 00:37:22;;;;;;;;;;;9.90;97.10;;;;;;5039084;28;36715;-57
2022/04/25 00:39:49;;;;;;;;;;;9.90;97.20;;;;;;5038778;28;38025;-57
2022/04/25 00:42:17;;;;;;;;;;;9.90;97.30;;;;;;5038797;28;36478;-56
2022/04/25 00:44:45;;;;;;;;;;;10.00;97.10;;;;;;5038240;28;36587;-57
2022/04/25 00:47:12;;;;;;;;;;;10.00;97.20;;;;;;5038686;28;40420;-57
2022/04/25 00:49:39;;;;;;;;;;;10.00;97.10;;;;;;5039619;28;38111;-57
2022/04/25 00:52:06;;;;;;;;;;;10.00;97.10;;;;;;5035481;28;36455;-57
2022/04/25 00:54:34;;;;;;;;;;;10.00;97.30;;;;;;5036195;28;37482;-57
2022/04/25 00:57:01;;;;;;;;;;;10.00;97.30;;;;;;5036458;28;36635;-57
2022/04/25 00:59:30;;;;;;;;;;;10.00;97.20;;;;;;5038696;28;39903;-57
2022/04/25 01:01:57;;;;;;;;;;;10.00;97.50;;;;;;5038577;28;36183;-57
2022/04/25 01:04:24;;;;;;;;;;;10.10;97.40;;;;;;5037776;28;38782;-57
2022/04/25 01:06:51;;;;;;;;;;;10.10;97.40;;;;;;5039182;28;38605;-57
2022/04/25 01:09:18;;;;;;;;;;;10.10;97.40;;;;;;5038137;28;38113;-57
2022/04/25 01:11:45;;;;;;;;;;;10.10;97.40;;;;;;5039622;28;35039;-57
2022/04/25 01:14:13;;;;;;;;;;;10.10;97.50;;;;;;5037914;28;37762;-57
2022/04/25 01:16:41;;;;;;;;;;;10.00;97.60;;;;;;5040317;28;36730;-57
2022/04/25 01:19:08;;;;;;;;;;;10.00;97.60;;;;;;5038708;28;35926;-57
2022/04/25 01:21:38;;;;;;;;;;;10.00;97.60;;;;;;5034884;28;37794;-57
2022/04/25 01:29:37;;;;;;;;;;;9.90;97.30;;;;;;5038525;28;39209;-57
2022/04/25 01:32:04;;;;;;;;;;;9.80;97.50;;;;;;5039082;28;35047;-57
2022/04/25 01:34:32;;;;;;;;;;;9.70;97.50;;;;;;5036186;28;40787;-57
2022/04/25 01:37:01;;;;;;;;;;;9.70;97.60;;;;;;5036521;28;38630;-57
2022/04/25 01:39:30;;;;;;;;;;;9.70;97.80;;;;;;5039897;28;38681;-57
2022/04/25 01:41:57;;;;;;;;;;;9.60;97.70;;;;;;5037945;28;38951;-57
2022/04/25 01:44:24;;;;;;;;;;;9.60;97.80;;;;;;5037916;28;37604;-57
2022/04/25 01:46:51;;;;;;;;;;;9.60;97.70;;;;;;5037878;28;40314;-57
2022/04/25 01:49:18;;;;;;;;;;;9.50;97.90;;;;;;5037938;28;37170;-57
2022/04/25 01:51:46;;;;;;;;;;;9.50;97.80;;;;;;5037438;28;35737;-59
2022/04/25 01:54:13;;;;;;;;;;;9.50;97.90;;;;;;5036071;28;37739;-59
2022/04/25 01:56:41;;;;;;;;;;;9.40;97.80;;;;;;5038035;28;39353;-59
2022/04/25 01:59:08;;;;;;;;;;;9.50;97.90;;;;;;5036694;28;37096;-59
2022/04/25 02:01:36;;;;;;;;;;;9.50;97.70;;;;;;5037024;28;36348;-59
2022/04/25 02:04:03;;;;;;;;;;;9.40;97.60;;;;;;5037724;28;37620;-59
2022/04/25 02:06:30;;;;;;;;;;;9.50;97.70;;;;;;5036960;28;38976;-59
2022/04/25 02:08:57;;;;;;;;;;;9.50;97.80;;;;;;5038295;28;38246;-59
2022/04/25 02:11:24;;;;;;;;;;;9.40;97.90;;;;;;5036773;28;38140;-57
2022/04/25 02:13:52;;;;;;;;;;;9.40;97.90;;;;;;5036598;28;38682;-57
2022/04/25 02:16:20;;;;;;;;;;;9.40;97.90;;;;;;5037923;28;38225;-57
2022/04/25 02:18:47;;;;;;;;;;;9.40;97.90;;;;;;5037462;28;35870;-57
2022/04/25 02:21:14;;;;;;;;;;;9.40;97.90;;;;;;5038041;28;36143;-57
2022/04/25 02:23:41;;;;;;;;;;;9.40;97.80;;;;;;5036220;28;37824;-57
2022/04/25 02:26:09;;;;;;;;;;;9.30;97.60;;;;;;5038114;28;38491;-56
2022/04/25 02:28:36;;;;;;;;;;;9.30;97.90;;;;;;5037879;28;38116;-57
2022/04/25 02:31:05;;;;;;;;;;;9.30;98.30;;;;;;5035498;28;36112;-57
2022/04/25 02:33:33;;;;;;;;;;;9.30;98.40;;;;;;5034582;28;36362;-57
2022/04/25 02:36:00;;;;;;;;;;;9.30;98.10;;;;;;5036051;28;38088;-57
2022/04/25 02:38:27;;;;;;;;;;;9.40;98.20;;;;;;5034827;28;38001;-57
2022/04/25 02:41:05;;;;;;;;;;;9.40;98.10;;;;;;5034883;28;37347;-57
2022/04/25 02:43:33;;;;;;;;;;;9.50;98.20;;;;;;5035190;28;37579;-57
2022/04/25 02:46:00;;;;;;;;;;;9.40;97.90;;;;;;5035994;28;39612;-57
2022/04/25 02:48:28;;;;;;;;;;;9.30;97.70;;;;;;5036851;28;37229;-57
2022/04/25 02:50:55;;;;;;;;;;;9.30;97.80;;;;;;5034838;28;36270;-57
2022/04/25 02:53:24;;;;;;;;;;;9.30;98.00;;;;;;5036385;28;37170;-57
2022/04/25 02:55:52;;;;;;;;;;;9.30;97.90;;;;;;5034055;28;38758;-57
2022/04/25 02:58:19;;;;;;;;;;;9.30;97.70;;;;;;5035759;28;37965;-57
2022/04/25 03:00:47;;;;;;;;;;;9.20;97.70;;;;;;5036195;28;35381;-60
2022/04/25 03:03:14;;;;;;;;;;;9.20;97.60;;;;;;5035601;28;36593;-57
2022/04/25 03:05:44;;;;;;;;;;;9.30;97.80;;;;;;5034525;28;38307;-57
2022/04/25 03:08:11;;;;;;;;;;;9.30;98.00;;;;;;5035057;28;35920;-57
2022/04/25 03:10:38;;;;;;;;;;;9.30;98.40;;;;;;5037121;28;36612;-57
2022/04/25 03:13:07;;;;;;;;;;;9.30;98.30;;;;;;5038019;28;37845;-57
2022/04/25 03:15:34;;;;;;;;;;;9.40;98.50;;;;;;5035784;28;39345;-57
2022/04/25 03:18:02;;;;;;;;;;;9.50;98.60;;;;;;5037917;28;38396;-58
2022/04/25 03:20:29;;;;;;;;;;;9.50;98.40;;;;;;5037017;28;37255;-57
2022/04/25 03:22:57;;;;;;;;;;;9.60;98.20;;;;;;5035080;28;39483;-57
2022/04/25 03:25:24;;;;;;;;;;;9.60;97.60;;;;;;5037463;28;36602;-57
2022/04/25 03:27:51;;;;;;;;;;;9.50;97.20;;;;;;5040535;28;39608;-57
2022/04/25 03:30:18;;;;;;;;;;;9.40;96.90;;;;;;5042249;28;35129;-57
2022/04/25 03:32:46;;;;;;;;;;;9.40;97.30;;;;;;5039031;28;38497;-57
2022/04/25 03:35:13;;;;;;;;;;;9.40;97.40;;;;;;5038900;28;40190;-57
2022/04/25 03:37:40;;;;;;;;;;;9.40;97.50;;;;;;5039811;28;37089;-57
2022/04/25 03:40:10;;;;;;;;;;;9.30;97.40;;;;;;5038201;28;36172;-57
2022/04/25 03:42:38;;;;;;;;;;;9.20;97.30;;;;;;5039913;28;36463;-57
2022/04/25 03:45:06;;;;;;;;;;;9.30;97.10;;;;;;5038308;28;37759;-57
2022/04/25 03:47:33;;;;;;;;;;;9.30;97.40;;;;;;5040855;28;39281;-57
2022/04/25 03:50:00;;;;;;;;;;;9.30;97.50;;;;;;5039973;28;35014;-57
2022/04/25 03:52:27;;;;;;;;;;;9.20;97.70;;;;;;5040909;28;37608;-57
2022/04/25 03:57:40;;;;;;;;;;;9.20;97.90;;;;;;5040846;28;38247;-57
2022/04/25 04:00:07;;;;;;;;;;;9.30;98.10;;;;;;5038856;28;37715;-59
2022/04/25 04:02:35;;;;;;;;;;;9.30;98.20;;;;;;5038916;28;36486;-57
2022/04/25 04:05:02;;;;;;;;;;;9.30;98.40;;;;;;5037581;28;37889;-57
2022/04/25 04:07:29;;;;;;;;;;;9.40;97.90;;;;;;5040406;28;38378;-57
2022/04/25 04:09:56;;;;;;;;;;;9.30;97.30;;;;;;5040994;28;37470;-57
2022/04/25 04:12:24;;;;;;;;;;;9.30;97.40;;;;;;5039473;28;36341;-59
2022/04/25 04:14:53;;;;;;;;;;;9.20;97.40;;;;;;5039369;28;38429;-59
2022/04/25 04:17:20;;;;;;;;;;;9.20;97.30;;;;;;5040259;28;37150;-59
2022/04/25 04:19:48;;;;;;;;;;;9.20;97.50;;;;;;5039486;28;35205;-59
2022/04/25 04:22:15;;;;;;;;;;;9.20;97.20;;;;;;5039553;28;39240;-57
2022/04/25 04:24:42;;;;;;;;;;;9.10;97.20;;;;;;5038883;28;36764;-57
2022/04/25 04:27:09;;;;;;;;;;;9.10;97.60;;;;;;5039256;28;37257;-57
2022/04/25 04:29:36;;;;;;;;;;;9.10;97.60;;;;;;5039545;28;36701;-60
2022/04/25 04:32:06;;;;;;;;;;;9.10;97.80;;;;;;5038026;28;38976;-59
2022/04/25 04:34:33;;;;;;;;;;;9.40;97.60;;;;;;5038859;28;38513;-59
2022/04/25 04:37:00;;;;;;;;;;;9.10;97.40;;;;;;5036970;28;37126;-59
2022/04/25 04:39:27;;;;;;;;;;;9.10;97.70;;;;;;5039756;28;36988;-59
2022/04/25 04:41:54;;;;;;;;;;;9.10;97.60;;;;;;5038234;28;38592;-60
2022/04/25 04:44:21;;;;;;;;;;;9.10;97.70;;;;;;5039251;28;38077;-59
2022/04/25 04:46:49;;;;;;;;;;;9.10;97.90;;;;;;5040015;28;37084;-60
2022/04/25 04:49:17;;;;;;;;;;;9.20;97.70;;;;;;5039435;28;38233;-59
2022/04/25 04:51:44;;;;;;;;;;;9.20;97.60;;;;;;5037815;28;37454;-57
2022/04/25 04:54:11;;;;;;;;;;;9.20;97.70;;;;;;5039238;28;36612;-57
2022/04/25 04:56:38;;;;;;;;;;;9.20;97.40;;;;;;5037976;28;37041;-57
2022/04/25 04:59:06;;;;;;;;;;;9.10;97.50;;;;;;5038460;28;38988;-58
2022/04/25 05:01:33;;;;;;;;;;;9.00;97.70;;;;;;5039594;28;39108;-58
2022/04/25 05:04:00;;;;;;;;;;;9.10;97.80;;;;;;5036523;28;38550;-58
2022/04/25 05:06:29;;;;;;;;;;;9.10;98.00;;;;;;5039315;28;35943;-57
2022/04/25 05:08:56;;;;;;;;;;;9.10;98.10;;;;;;5037394;28;36528;-57
2022/04/25 05:11:23;;;;;;;;;;;9.10;97.90;;;;;;5039160;28;37908;-59
2022/04/25 05:13:51;;;;;;;;;;;9.10;98.10;;;;;;5038744;28;39500;-59
2022/04/25 05:16:20;;;;;;;;;;;9.10;97.80;;;;;;5038094;28;37416;-59
2022/04/25 05:18:47;;;;;;;;;;;9.10;97.90;;;;;;5037714;28;35112;-59
2022/04/25 05:21:14;;;;;;;;;;;9.20;97.70;;;;;;5036909;28;38972;-59
2022/04/25 05:23:43;;;;;;;;;;;9.20;97.60;;;;;;5036690;28;36692;-59
2022/04/25 05:26:10;;;;;;;;;;;9.30;98.00;;;;;;5037772;28;38414;-59
2022/04/25 05:28:37;;;;;;;;;;;9.30;98.00;;;;;;5038511;28;35776;-59
2022/04/25 05:31:04;;;;;;;;;;;9.30;97.60;;;;;;5037738;28;37515;-60
2022/04/25 05:33:31;;;;;;;;;;;9.20;97.60;;;;;;5038668;28;38354;-59
2022/04/25 05:35:58;;;;;;;;;;;9.20;97.50;;;;;;5036828;28;37806;-59
2022/04/25 05:38:25;;;;;;;;;;;9.30;97.70;;;;;;5037255;28;35071;-59
2022/04/25 05:40:54;;;;;;;;;;;9.20;97.30;;;;;;5037401;28;38007;-59
2022/04/25 05:43:21;;;;;;;;;;;9.20;97.80;;;;;;5035252;28;38404;-57
2022/04/25 05:45:48;;;;;;;;;;;9.20;97.30;;;;;;5035043;28;35626;-57
2022/04/25 05:53:47;;;;;;;;;;;9.30;97.10;;;;;;5037438;28;39220;-57
2022/04/25 05:56:15;;;;;;;;;;;9.30;97.10;;;;;;5037101;28;37011;-57
2022/04/25 05:58:42;;;;;;;;;;;9.30;97.10;;;;;;5037322;28;37712;-59
2022/04/25 06:01:09;;;;;;;;;;;9.30;97.40;;;;;;5037601;28;37356;-59
2022/04/25 06:03:37;;;;;;;;;;;9.30;97.20;;;;;;5037879;28;38632;-59
2022/04/25 06:06:04;;;;;;;;;;;9.30;97.50;;;;;;5037775;28;37405;-59
2022/04/25 06:08:31;;;;;;;;;;;9.40;97.40;;;;;;5037963;28;36564;-59
2022/04/25 06:10:58;;;;;;;;;;;9.40;97.10;;;;;;5036658;28;38344;-59
2022/04/25 06:13:26;;;;;;;;;;;9.40;97.00;;;;;;5037768;28;38593;-59
2022/04/25 06:15:54;;;;;;;;;;;9.30;97.30;;;;;;5037438;28;36979;-60
2022/04/25 06:18:22;;;;;;;;;;;9.40;96.80;;;;;;5038467;28;37225;-59
2022/04/25 06:20:50;;;;;;;;;;;9.40;96.90;;;;;;5038481;28;36483;-59
2022/04/25 06:23:18;;;;;;;;;;;9.30;96.90;;;;;;5037342;28;37525;-59
2022/04/25 06:25:45;;;;;;;;;;;9.20;97.00;;;;;;5037691;28;37006;-59
2022/04/25 06:28:15;;;;;;;;;;;9.20;97.30;;;;;;5037126;28;36203;-59
2022/04/25 06:30:43;;;;;;;;;;;9.20;97.30;;;;;;5038028;28;38893;-58
2022/04/25 06:33:10;;;;;;;;;;;9.20;97.30;;;;;;5036856;28;39195;-58
2022/04/25 06:35:37;;;;;;;;;;;9.20;97.50;;;;;;5037776;28;37479;-57
2022/04/25 06:38:04;;;;;;;;;;;9.30;97.80;;;;;;5037473;28;36898;-57
2022/04/25 06:40:31;;;;;;;;;;;9.30;97.80;;;;;;5037488;28;37646;-57
2022/04/25 06:42:59;;;;;;;;;;;9.30;97.30;;;;;;5036560;28;37624;-58
2022/04/25 06:45:26;;;;;;;;;;;9.30;97.40;;;;;;5036534;28;39741;-58
2022/04/25 06:47:54;;;;;;;;;;;9.30;97.20;;;;;;5036429;28;36176;-57
2022/04/25 06:50:23;;;;;;;;;;;9.30;97.00;;;;;;5035116;28;35002;-58
2022/04/25 06:52:50;;;;;;;;;;;9.30;97.00;;;;;;5035831;28;38736;-58
2022/04/25 06:55:18;;;;;;;;;;;9.30;96.90;;;;;;5035908;28;38967;-58
2022/04/25 06:57:45;;;;;;;;;;;9.40;97.50;;;;;;5035770;28;37528;-57
2022/04/25 07:00:12;;;;;;;;;;;9.30;96.90;;;;;;5039054;28;36850;-57
2022/04/25 07:02:39;;;;;;;;;;;9.20;96.80;;;;;;5038466;28;40629;-58
2022/04/25 07:05:09;;;;;;;;;;;9.30;97.20;;;;;;5038140;28;36101;-57
2022/04/25 07:07:36;;;;;;;;;;;9.30;97.90;;;;;;5041054;28;36199;-58
2022/04/25 07:10:03;;;;;;;;;;;9.30;97.30;;;;;;5041466;28;38176;-58
2022/04/25 07:12:30;;;;;;;;;;;9.30;97.40;;;;;;5041086;28;38662;-58
2022/04/25 07:14:59;;;;;;;;;;;9.40;97.30;;;;;;5041532;28;37018;-57
2022/04/25 07:17:26;;;;;;;;;;;9.30;97.20;;;;;;5040333;28;36935;-58
2022/04/25 07:19:53;;;;;;;;;;;9.40;97.50;;;;;;5038566;28;37397;-58
2022/04/25 07:30:36;;;;;;;;;;;9.40;97.30;;;;;;5037153;28;39704;-57
2022/04/25 07:33:03;;;;;;;;;;;9.70;97.20;;;;;;5038871;28;38356;-57
2022/04/25 07:35:30;;;;;;;;;;;9.50;97.00;;;;;;5036597;28;36696;-58
2022/04/25 07:37:58;;;;;;;;;;;9.50;97.20;;;;;;5037292;28;36535;-58
2022/04/25 07:40:26;;;;;;;;;;;9.50;97.10;;;;;;5038953;28;38995;-59
2022/04/25 07:42:54;;;;;;;;;;;9.50;97.30;;;;;;5038476;28;38013;-59
2022/04/25 07:45:21;;;;;;;;;;;9.60;97.30;;;;;;5039586;28;37010;-59
2022/04/25 07:47:48;;;;;;;;;;;9.60;97.10;;;;;;5037646;28;36271;-59
2022/04/25 07:50:16;;;;;;;;;;;9.60;97.40;;;;;;5039106;28;37411;-59
2022/04/25 07:52:43;;;;;;;;;;;9.60;97.20;;;;;;5038963;28;38086;-57
2022/04/25 07:55:12;;;;;;;;;;;9.60;97.20;;;;;;5039259;28;37748;-58
2022/04/25 07:57:39;;;;;;;;;;;9.70;96.80;;;;;;5039412;28;36906;-57
2022/04/25 08:00:07;;;;;;;;;;;9.70;97.10;;;;;;5039471;28;38104;-56
2022/04/25 08:02:34;;;;;;;;;;;9.70;97.00;;;;;;5040481;28;38973;-56
2022/04/25 08:05:01;;;;;;;;;;;9.80;97.10;;;;;;5038436;28;37039;-57
2022/04/25 08:07:29;;;;;;;;;;;9.70;96.60;;;;;;5039734;28;36499;-57
2022/04/25 08:09:59;;;;;;;;;;;9.70;96.20;;;;;;5040691;28;38094;-57
2022/04/25 08:18:01;;;;;;;;;;;9.70;96.30;;;;;;5038019;28;36433;-57
2022/04/25 08:20:29;;;;;;;;;;;9.70;96.10;;;;;;5037978;28;36353;-58
2022/04/25 08:22:56;;;;;;;;;;;9.70;96.00;;;;;;5039773;28;37627;-59
2022/04/25 08:25:24;;;;;;;;;;;9.80;96.10;;;;;;5038567;28;36976;-59
2022/04/25 08:27:53;;;;;;;;;;;9.70;96.20;;;;;;5039717;28;37181;-59
2022/04/25 08:30:21;;;;;;;;;;;9.80;95.50;;;;;;5040883;28;39080;-58
2022/04/25 08:32:52;;;;;;;;;;;9.80;96.20;;;;;;5039987;28;37969;-59
2022/04/25 08:35:21;;;;;;;;;;;9.80;95.50;;;;;;5039070;28;36088;-59
2022/04/25 08:37:48;;;;;;;;;;;9.90;95.50;;;;;;5040211;28;35038;-59
2022/04/25 08:40:16;;;;;;;;;;;10.00;95.80;;;;;;5040046;28;36938;-59
2022/04/25 08:42:44;;;;;;;;;;;10.00;95.10;;;;;;5039474;28;38590;-58
2022/04/25 08:45:13;;;;;;;;;;;10.10;94.90;;;;;;5038967;28;38413;-57
2022/04/25 08:47:44;;;;;;;;;;;10.10;94.90;;;;;;5040589;28;38290;-57
2022/04/25 08:50:11;;;;;;;;;;;10.20;94.90;;;;;;5037575;28;38782;-57
2022/04/25 08:52:40;;;;;;;;;;;10.20;95.00;;;;;;5038003;28;38202;-57
2022/04/25 08:55:09;;;;;;;;;;;10.20;94.60;;;;;;5038845;28;36591;-57
2022/04/25 08:57:37;;;;;;;;;;;10.20;94.30;;;;;;5039186;28;37800;-57
2022/04/25 09:00:05;;;;;;;;;;;10.30;94.70;;;;;;5040312;28;36984;-56
2022/04/25 09:02:34;;;;;;;;;;;10.30;94.40;;;;;;5038083;28;38120;-57
2022/04/25 09:05:01;;;;;;;;;;;10.30;95.20;;;;;;5036648;28;36939;-57
2022/04/25 09:07:29;;;;;;;;;;;10.50;94.90;;;;;;5034117;28;37634;-57
2022/04/25 09:09:56;;;;;;;;;;;10.50;94.70;;;;;;5037291;28;38726;-57
2022/04/25 09:12:23;;;;;;;;;;;10.50;94.50;;;;;;5038916;28;37321;-57
2022/04/25 09:14:50;;;;;;;;;;;10.40;94.40;;;;;;5038185;28;37441;-56
2022/04/25 09:17:17;;;;;;;;;;;10.40;95.30;;;;;;5038188;28;35032;-57
2022/04/25 09:19:46;;;;;;;;;;;10.50;95.00;;;;;;5036362;28;39182;-57
2022/04/25 09:22:29;;;;;;;;;;;10.50;94.60;;;;;;5039727;28;38658;-56
2022/04/25 09:25:03;;;;;;;;;;;10.50;94.30;;;;;;5038935;28;37374;-57
2022/04/25 09:27:30;;;;;;;;;;;10.60;95.00;;;;;;5038480;28;35144;-56
2022/04/25 09:30:11;;;;;;;;;;;10.70;94.20;;;;;;5038375;28;38847;-57
2022/04/25 09:32:38;;;;;;;;;;;10.70;94.60;;;;;;5038278;28;37425;-57
2022/04/25 09:35:24;;;;;;;;;;;10.80;94.40;;;;;;5037574;28;37866;-57
2022/04/25 09:37:52;;;;;;;;;;;10.80;94.10;;;;;;5037701;28;38117;-58
2022/04/25 09:40:20;;;;;;;;;;;10.70;93.70;;;;;;5037031;28;37361;-59
2022/04/25 09:42:48;;;;;;;;;;;10.70;94.10;;;;;;5039003;28;38536;-59
2022/04/25 09:45:15;;;;;;;;;;;10.70;94.10;;;;;;5037088;28;37249;-58
2022/04/25 09:47:43;;;;;;;;;;;10.70;94.00;;;;;;5037722;28;36448;-58
2022/04/25 09:50:11;;;;;;;;;;;10.70;94.40;;;;;;5038787;28;39108;-58
2022/04/25 09:52:52;;;;;;;;;;;10.80;94.90;;;;;;5037519;28;37741;-58
2022/04/25 09:55:22;;;;;;;;;;;10.80;94.80;;;;;;5037217;28;38199;-59
2022/04/25 09:57:50;;;;;;;;;;;10.80;94.50;;;;;;5037489;28;36084;-59
2022/04/25 10:00:29;;;;;;;;;;;10.90;94.60;;;;;;5037448;28;36467;-57
2022/04/25 10:02:58;;;;;;;;;;;10.90;94.20;;;;;;5035937;28;31457;-57
2022/04/25 10:05:36;;;;;;;;;;;11.00;94.00;;;;;;5037845;28;38005;-57
2022/04/25 10:08:04;;;;;;;;;;;11.10;94.30;;;;;;5037942;28;37039;-57
2022/04/25 10:10:33;;;;;;;;;;;11.10;94.10;;;;;;5037512;28;37705;-57
2022/04/25 10:13:00;;;;;;;;;;;11.20;94.20;;;;;;5036903;28;38315;-57
2022/04/25 10:15:27;;;;;;;;;;;11.20;94.20;;;;;;5038322;28;37835;-57
2022/04/25 10:17:55;;;;;;;;;;;11.30;94.10;;;;;;5037878;28;36906;-57
2022/04/25 10:20:22;;;;;;;;;;;11.40;94.20;;;;;;5037451;28;38469;-57
2022/04/25 10:22:51;;;;;;;;;;;11.40;93.70;;;;;;5037892;28;37431;-57
2022/04/25 10:25:18;;;;;;;;;;;11.60;94.70;;;;;;5037749;28;36196;-57
2022/04/25 10:27:49;;;;;;;;;;;11.70;93.80;;;;;;5036919;28;36597;-57
2022/04/25 10:30:17;;;;;;;;;;;11.80;92.90;;;;;;5038532;28;37883;-57
2022/04/25 10:32:44;;;;;;;;;;;11.90;93.50;;;;;;5037618;28;39615;-57
2022/04/25 10:35:14;;;;;;;;;;;11.90;92.90;;;;;;5035962;28;37293;-57
2022/04/25 10:37:43;;;;;;;;;;;11.90;92.70;;;;;;5037456;28;35245;-57
2022/04/25 10:40:12;;;;;;;;;;;11.90;92.60;;;;;;5037075;28;39147;-58
2022/04/25 10:45:54;;;;;;;;;;;12.00;93.20;;;;;;5036939;28;39865;-57
2022/04/25 10:48:21;;;;;;;;;;;12.00;92.40;;;;;;5038116;28;36801;-57
2022/04/25 10:51:03;;;;;;;;;;;12.00;92.40;;;;;;5038521;28;39064;-57
2022/04/25 10:53:45;;;;;;;;;;;12.00;92.90;;;;;;5035150;28;38796;-57
2022/04/25 10:56:14;;;;;;;;;;;12.00;92.70;;;;;;5036056;28;37437;-56
2022/04/25 10:58:42;;;;;;;;;;;12.10;93.10;;;;;;5036348;28;35256;-59
2022/04/25 11:01:30;;;;;;;;;;;12.10;92.80;;;;;;5036379;28;39023;-58
2022/04/25 11:04:03;;;;;;;;;;;12.10;91.90;;;;;;5035492;28;36764;-59
2022/04/25 11:06:30;;;;;;;;;;;12.20;91.60;;;;;;5036220;28;37934;-59
2022/04/25 11:08:57;;;;;;;;;;;12.20;90.80;;;;;;5037117;28;36608;-60
2022/04/25 11:11:25;;;;;;;;;;;12.20;90.80;;;;;;5035647;28;38475;-58
2022/04/25 11:14:10;;;;;;;;;;;12.20;91.50;;;;;;5036548;28;40343;-60
2022/04/25 11:16:39;;;;;;;;;;;12.20;90.50;;;;;;5038556;28;35975;-59
2022/04/25 11:19:11;;;;;;;;;;;12.20;90.30;;;;;;5037060;28;35239;-59
2022/04/25 11:21:49;;;;;;;;;;;12.30;90.60;;;;;;5037116;28;39216;-59
2022/04/25 11:24:29;;;;;;;;;;;12.40;90.60;;;;;;5037807;28;37698;-57
2022/04/25 11:26:57;;;;;;;;;;;12.40;90.20;;;;;;5037491;28;37912;-57
2022/04/25 11:29:24;;;;;;;;;;;12.40;90.20;;;;;;5038335;28;37347;-56
2022/04/25 11:32:13;;;;;;;;;;;12.50;91.80;;;;;;5037126;28;37817;-60
2022/04/25 11:34:40;;;;;;;;;;;12.60;93.00;;;;;;5037030;28;37924;-58
2022/04/25 11:37:10;;;;;;;;;;;12.70;92.60;;;;;;5039132;28;38983;-56
2022/04/25 11:39:53;;;;;;;;;;;12.70;93.20;;;;;;5037518;28;36585;-56
2022/04/25 11:42:20;;;;;;;;;;;12.70;92.30;;;;;;5038304;28;36548;-56
2022/04/25 11:44:47;;;;;;;;;;;12.70;92.70;;;;;;5037083;28;37712;-56
2022/04/25 11:47:15;;;;;;;;;;;12.70;93.10;;;;;;5040002;28;36004;-57
2022/04/25 11:49:42;;;;;;;;;;;12.80;92.90;;;;;;5041382;28;36664;-56
2022/04/25 11:52:15;;;;;;;;;;;12.80;92.90;;;;;;5041481;28;39795;-57
2022/04/25 11:54:42;;;;;;;;;;;12.80;93.10;;;;;;5041724;28;38842;-56
2022/04/25 11:57:09;;;;;;;;;;;12.80;92.90;;;;;;5040547;28;37507;-56
2022/04/25 11:59:36;;;;;;;;;;;12.80;92.50;;;;;;5040966;28;35206;-56
2022/04/25 12:02:03;;;;;;;;;;;12.80;92.80;;;;;;5041292;28;38687;-56
2022/04/25 12:04:33;;;;;;;;;;;12.90;92.70;;;;;;5039187;28;39511;-56
2022/04/25 12:07:01;;;;;;;;;;;12.90;93.30;;;;;;5040374;28;39556;-57
2022/04/25 12:17:44;;;;;;;;;;;12.90;92.80;;;;;;5039592;28;38100;-57
2022/04/25 12:20:13;;;;;;;;;;;13.00;92.90;;;;;;5040229;28;36279;-60
2022/04/25 12:22:40;;;;;;;;;;;12.90;92.50;;;;;;5038743;28;39514;-60
2022/04/25 12:25:11;;;;;;;;;;;12.90;91.70;;;;;;5039771;28;38687;-56
2022/04/25 12:27:38;;;;;;;;;;;12.90;92.30;;;;;;5039964;28;37535;-57
2022/04/25 12:30:06;;;;;;;;;;;12.90;92.90;;;;;;5040063;28;36603;-57
2022/04/25 12:32:33;;;;;;;;;;;12.90;93.00;;;;;;5039900;28;37548;-60
2022/04/25 12:35:00;;;;;;;;;;;12.90;92.30;;;;;;5038438;28;37307;-59
2022/04/25 12:37:29;;;;;;;;;;;12.90;92.80;;;;;;5040474;28;37769;-59
2022/04/25 12:40:02;;;;;;;;;;;12.90;92.40;;;;;;5040044;28;37327;-59
2022/04/25 12:42:43;;;;;;;;;;;12.90;92.80;;;;;;5039294;28;38590;-56
2022/04/25 12:45:10;;;;;;;;;;;12.90;93.10;;;;;;5039387;28;37700;-56
2022/04/25 12:47:39;;;;;;;;;;;12.90;93.00;;;;;;5038917;28;38683;-58
2022/04/25 12:50:06;;;;;;;;;;;12.90;92.80;;;;;;5039759;28;36493;-56
2022/04/25 12:52:49;;;;;;;;;;;13.00;92.30;;;;;;5040156;28;37818;-56
2022/04/25 12:55:16;;;;;;;;;;;13.00;92.30;;;;;;5038449;28;38692;-56
2022/04/25 12:57:50;;;;;;;;;;;12.90;92.60;;;;;;5039951;28;37972;-56
2022/04/25 13:00:17;;;;;;;;;;;12.90;92.80;;;;;;5040001;28;36981;-57
2022/04/25 13:02:44;;;;;;;;;;;12.90;92.80;;;;;;5039548;28;37876;-56
2022/04/25 13:05:12;;;;;;;;;;;12.90;92.20;;;;;;5037788;28;37781;-56
2022/04/25 13:07:40;;;;;;;;;;;13.00;92.10;;;;;;5038864;28;38770;-56
2022/04/25 13:10:09;;;;;;;;;;;12.90;92.30;;;;;;5037946;28;36225;-56
2022/04/25 13:12:37;;;;;;;;;;;12.90;92.30;;;;;;5038763;28;36755;-59
2022/04/25 13:15:05;;;;;;;;;;;12.90;92.50;;;;;;5038976;28;39236;-60
2022/04/25 13:17:33;;;;;;;;;;;12.90;92.70;;;;;;5039298;28;36772;-60
2022/04/25 13:20:00;;;;;;;;;;;12.90;92.50;;;;;;5038594;28;36244;-59
2022/04/25 13:22:27;;;;;;;;;;;13.00;93.30;;;;;;5038987;28;36623;-60
2022/04/25 13:24:54;;;;;;;;;;;13.10;92.70;;;;;;5038283;28;38670;-59
2022/04/25 13:27:23;;;;;;;;;;;13.10;93.20;;;;;;5040301;28;38052;-59
2022/04/25 13:29:50;;;;;;;;;;;13.30;93.30;;;;;;5039139;28;35340;-59
2022/04/25 13:32:17;;;;;;;;;;;13.40;93.10;;;;;;5038032;28;37235;-59
2022/04/25 13:34:45;;;;;;;;;;;13.40;93.30;;;;;;5037126;28;38225;-60
2022/04/25 13:37:13;;;;;;;;;;;13.50;92.90;;;;;;5037015;28;36042;-56
2022/04/25 13:39:40;;;;;;;;;;;13.70;93.40;;;;;;5038441;28;36907;-56
2022/04/25 13:42:08;;;;;;;;;;;13.70;92.80;;;;;;5037154;28;37631;-56
2022/04/25 13:44:37;;;;;;;;;;;13.70;91.40;;;;;;5038159;28;39173;-56
2022/04/25 13:47:06;;;;;;;;;;;13.70;92.30;;;;;;5039572;28;37765;-56
2022/04/25 13:49:33;;;;;;;;;;;13.80;91.90;;;;;;5037719;28;36137;-56
2022/04/25 13:52:01;;;;;;;;;;;13.80;92.10;;;;;;5038465;28;38804;-60
2022/04/25 13:54:28;;;;;;;;;;;13.90;90.60;;;;;;5038716;28;39272;-59
2022/04/25 13:56:56;;;;;;;;;;;13.80;90.60;;;;;;5038812;28;37324;-56
2022/04/25 13:59:23;;;;;;;;;;;13.90;90.70;;;;;;5038157;28;36678;-56
2022/04/25 14:01:51;;;;;;;;;;;13.80;91.00;;;;;;5036010;28;37172;-57
2022/04/25 14:04:18;;;;;;;;;;;13.90;91.10;;;;;;5036939;28;37480;-56
2022/04/25 14:06:45;;;;;;;;;;;13.90;90.70;;;;;;5038143;28;38776;-56
2022/04/25 14:09:13;;;;;;;;;;;13.90;89.60;;;;;;5037521;28;35054;-56
2022/04/25 14:11:40;;;;;;;;;;;13.80;90.60;;;;;;5038349;28;37903;-56
2022/04/25 14:14:07;;;;;;;;;;;13.80;90.50;;;;;;5038690;28;36753;-56
2022/04/25 14:16:34;;;;;;;;;;;13.80;90.80;;;;;;5038079;28;37791;-57
2022/04/25 14:19:03;;;;;;;;;;;13.70;90.20;;;;;;5036236;28;38228;-57
2022/04/25 14:21:30;;;;;;;;;;;13.60;90.40;;;;;;5036266;28;36602;-57
2022/04/25 14:23:57;;;;;;;;;;;13.50;90.50;;;;;;5036782;28;38238;-56
2022/04/25 14:26:25;;;;;;;;;;;13.40;91.20;;;;;;5037165;28;37126;-56
2022/04/25 14:28:53;;;;;;;;;;;13.30;90.50;;;;;;5036479;28;35063;-56
2022/04/25 14:31:20;;;;;;;;;;;13.30;91.00;;;;;;5037532;28;37210;-56
2022/04/25 14:33:47;;;;;;;;;;;13.10;91.10;;;;;;5037151;28;38205;-56
2022/04/25 14:36:15;;;;;;;;;;;13.10;91.50;;;;;;5036678;28;36000;-56
2022/04/25 14:38:43;;;;;;;;;;;13.00;91.00;;;;;;5038154;28;35063;-59
2022/04/25 14:41:10;;;;;;;;;;;13.00;91.40;;;;;;5038725;28;38743;-60
2022/04/25 14:43:37;;;;;;;;;;;13.00;91.50;;;;;;5035642;28;39352;-59
2022/04/25 14:46:04;;;;;;;;;;;13.00;91.60;;;;;;5036842;28;38083;-60
2022/04/25 14:48:32;;;;;;;;;;;12.90;91.50;;;;;;5037841;28;35256;-60
2022/04/25 14:56:29;;;;;;;;;;;12.80;90.50;;;;;;5037748;28;38190;-59
2022/04/25 14:58:57;;;;;;;;;;;12.80;90.20;;;;;;5036059;28;36742;-59
2022/04/25 15:01:24;;;;;;;;;;;12.80;90.60;;;;;;5037442;28;37889;-59
2022/04/25 15:03:51;;;;;;;;;;;12.80;90.80;;;;;;5037634;28;38788;-56
2022/04/25 15:06:20;;;;;;;;;;;12.70;90.40;;;;;;5037151;28;36972;-56
2022/04/25 15:08:48;;;;;;;;;;;12.70;90.40;;;;;;5035194;28;36313;-56
2022/04/25 15:11:15;;;;;;;;;;;12.70;90.40;;;;;;5037717;28;37718;-56
2022/04/25 15:13:42;;;;;;;;;;;12.60;90.20;;;;;;5036220;28;38831;-57